Time;durP1;ratioP1;P1;durP2;ratioP2;P2;SDS_P1;SDS_P2;PMS_P1;PMS_P2;Temp;Humidity;BMP_temperature;BMP_pressure;BME280_temperature;BME280_humidity;BME280_pressure;Samples;Min_cycle;Max_cycle;Signal;HPM_P1;HPM_P2
2023/09/29 00:00:14;;;;;;;16.60;8.47;;;;;17.20;101122.00;;;;5020088;28;20599;-67
2023/09/29 00:03:01;;;;;;;15.07;8.17;;;;;17.20;101129.00;;;;5014739;28;20368;-65
2023/09/29 00:05:49;;;;;;;12.80;7.50;;;;;17.20;101136.00;;;;5012474;28;20240;-66
2023/09/29 00:08:37;;;;;;;12.00;7.73;;;;;17.20;101132.00;;;;5017017;28;20362;-66
2023/09/29 00:11:23;;;;;;;16.53;9.00;;;;;17.20;101122.00;;;;5023156;28;20222;-67
2023/09/29 00:14:10;;;;;;;11.73;8.50;;;;;17.30;101131.00;;;;5009171;28;20226;-66
2023/09/29 00:16:56;;;;;;;14.60;8.47;;;;;17.30;101130.00;;;;5016203;28;20225;-66
2023/09/29 00:19:42;;;;;;;10.30;7.57;;;;;17.30;101135.00;;;;5020072;28;20319;-67
2023/09/29 00:22:29;;;;;;;12.30;7.90;;;;;17.30;101137.00;;;;5025176;28;20959;-66
2023/09/29 00:25:17;;;;;;;11.43;8.03;;;;;17.30;101135.00;;;;5025188;28;20237;-67
2023/09/29 00:28:05;;;;;;;11.87;7.87;;;;;17.30;101138.00;;;;5024866;28;20233;-67
2023/09/29 00:30:51;;;;;;;12.70;8.47;;;;;17.30;101128.00;;;;5022469;28;20253;-67
2023/09/29 00:33:38;;;;;;;12.47;8.27;;;;;17.30;101121.00;;;;5022810;28;20776;-67
2023/09/29 00:36:24;;;;;;;11.10;7.87;;;;;17.30;101117.00;;;;5023833;28;20233;-67
2023/09/29 00:39:13;;;;;;;13.00;8.17;;;;;17.30;101115.00;;;;5018274;28;20304;-67
2023/09/29 00:42:03;;;;;;;14.90;8.37;;;;;17.30;101111.00;;;;5019743;28;20743;-70
2023/09/29 00:44:49;;;;;;;10.27;7.80;;;;;17.30;101118.00;;;;5014144;28;20293;-69
2023/09/29 00:47:37;;;;;;;11.13;7.70;;;;;17.30;101107.00;;;;5019587;28;20241;-66
2023/09/29 00:50:28;;;;;;;12.80;7.80;;;;;17.30;101109.00;;;;5014882;28;20229;-64
2023/09/29 00:53:18;;;;;;;9.63;7.40;;;;;17.30;101102.00;;;;5025641;28;20234;-66
2023/09/29 00:56:06;;;;;;;13.80;7.87;;;;;17.30;101095.00;;;;5016087;28;20987;-66
2023/09/29 00:58:55;;;;;;;11.17;7.60;;;;;17.30;101100.00;;;;5017228;28;20657;-65
2023/09/29 01:01:42;;;;;;;12.10;7.37;;;;;17.30;101089.00;;;;5023639;28;20342;-63
2023/09/29 01:04:29;;;;;;;11.37;7.40;;;;;17.30;101094.00;;;;5024802;28;20258;-65
2023/09/29 01:07:16;;;;;;;9.13;7.17;;;;;17.30;101088.00;;;;5021114;28;20693;-70
2023/09/29 01:10:04;;;;;;;11.70;7.60;;;;;17.30;101088.00;;;;5022624;28;20229;-67
2023/09/29 01:12:51;;;;;;;14.10;7.50;;;;;17.30;101099.00;;;;5017658;28;20229;-66
2023/09/29 01:15:40;;;;;;;11.87;7.60;;;;;17.30;101088.00;;;;5018324;28;20601;-67
2023/09/29 01:18:28;;;;;;;14.73;7.87;;;;;17.30;101081.00;;;;5014990;28;20235;-66
2023/09/29 01:21:15;;;;;;;13.73;7.73;;;;;17.30;101075.00;;;;5016965;28;20253;-65
2023/09/29 01:24:05;;;;;;;10.63;7.67;;;;;17.30;101082.00;;;;5020446;28;20361;-67
2023/09/29 01:26:52;;;;;;;10.97;7.60;;;;;17.30;101082.00;;;;5015364;28;20229;-67
2023/09/29 01:29:41;;;;;;;9.47;7.90;;;;;17.30;101087.00;;;;5019879;28;20246;-68
2023/09/29 01:32:28;;;;;;;13.33;8.27;;;;;17.30;101084.00;;;;5017358;28;20233;-63
2023/09/29 01:35:15;;;;;;;14.17;8.33;;;;;17.30;101081.00;;;;5017758;28;20226;-66
2023/09/29 01:38:02;;;;;;;14.50;8.07;;;;;17.30;101082.00;;;;5016020;28;20229;-66
2023/09/29 01:40:51;;;;;;;14.17;8.13;;;;;17.30;101083.00;;;;5023689;28;20316;-67
2023/09/29 01:43:38;;;;;;;10.33;7.40;;;;;17.30;101080.00;;;;5021278;28;20233;-69
2023/09/29 01:46:25;;;;;;;12.30;7.47;;;;;17.30;101074.00;;;;5023866;28;20257;-68
2023/09/29 01:49:11;;;;;;;11.50;7.70;;;;;17.30;101072.00;;;;5020006;28;20281;-67
2023/09/29 01:51:58;;;;;;;13.27;7.33;;;;;17.30;101069.00;;;;5015473;28;20225;-67
2023/09/29 01:54:44;;;;;;;9.50;7.10;;;;;17.30;101061.00;;;;5022274;28;20249;-65
2023/09/29 01:57:33;;;;;;;10.27;7.50;;;;;17.30;101057.00;;;;5021289;28;20722;-67
2023/09/29 02:00:24;;;;;;;9.83;7.17;;;;;17.30;101056.00;;;;5021915;28;20229;-67
2023/09/29 02:03:11;;;;;;;11.67;7.53;;;;;17.30;101062.00;;;;5020161;28;20245;-67
2023/09/29 02:05:58;;;;;;;11.73;6.90;;;;;17.30;101054.00;;;;5008416;28;20225;-66
2023/09/29 02:08:44;;;;;;;11.37;6.80;;;;;17.30;101053.00;;;;5022603;28;20233;-67
2023/09/29 02:11:30;;;;;;;13.87;7.10;;;;;17.30;101057.00;;;;5023546;28;20283;-66
2023/09/29 02:14:18;;;;;;;10.43;7.10;;;;;17.30;101046.00;;;;5002444;28;20230;-67
2023/09/29 02:17:04;;;;;;;12.90;7.70;;;;;17.30;101045.00;;;;5021889;28;20686;-67
2023/09/29 02:19:52;;;;;;;11.97;6.57;;;;;17.40;101052.00;;;;5016279;28;20268;-65
2023/09/29 02:22:39;;;;;;;10.83;7.20;;;;;17.40;101043.00;;;;5023172;28;20233;-63
2023/09/29 02:25:26;;;;;;;9.33;6.87;;;;;17.30;101042.00;;;;5017005;28;20237;-63
2023/09/29 02:28:13;;;;;;;9.57;7.03;;;;;17.40;101045.00;;;;5023955;28;20229;-66
2023/09/29 02:31:03;;;;;;;8.00;6.60;;;;;17.40;101042.00;;;;5017799;28;20645;-68
2023/09/29 02:33:50;;;;;;;10.40;7.00;;;;;17.30;101041.00;;;;5021071;28;20601;-69
2023/09/29 02:36:39;;;;;;;11.47;6.90;;;;;17.30;101044.00;;;;5026462;28;20237;-67
2023/09/29 02:39:26;;;;;;;10.23;7.03;;;;;17.30;101040.00;;;;5027817;28;20365;-67
2023/09/29 02:42:12;;;;;;;12.77;6.73;;;;;17.30;101034.00;;;;5021692;28;20226;-66
2023/09/29 02:44:58;;;;;;;10.27;6.70;;;;;17.30;101034.00;;;;5025226;28;20233;-68
2023/09/29 02:47:47;;;;;;;9.60;6.57;;;;;17.30;101029.00;;;;5026670;28;20226;-66
2023/09/29 02:50:35;;;;;;;7.83;6.13;;;;;17.40;101024.00;;;;5022770;28;20323;-68
2023/09/29 02:53:22;;;;;;;12.33;6.00;;;;;17.30;101026.00;;;;5021188;28;20233;-68
2023/09/29 02:56:11;;;;;;;11.30;6.33;;;;;17.40;101022.00;;;;5022094;28;20230;-66
2023/09/29 02:58:59;;;;;;;7.97;6.53;;;;;17.30;101012.00;;;;5024621;28;20253;-66
2023/09/29 03:01:45;;;;;;;6.73;6.03;;;;;17.30;101012.00;;;;5025517;28;20623;-67
2023/09/29 03:04:33;;;;;;;9.13;6.53;;;;;17.40;101013.00;;;;5017006;28;20320;-68
2023/09/29 03:07:19;;;;;;;9.03;6.17;;;;;17.30;101011.00;;;;5023754;28;20233;-68
2023/09/29 03:10:06;;;;;;;11.37;6.47;;;;;17.40;101012.00;;;;5012645;28;20232;-69
2023/09/29 03:12:56;;;;;;;11.17;6.23;;;;;17.30;101015.00;;;;5022476;28;20234;-68
2023/09/29 03:15:43;;;;;;;10.97;6.10;;;;;17.30;101028.00;;;;5008855;28;20241;-65
2023/09/29 03:18:30;;;;;;;8.80;6.40;;;;;17.30;101023.00;;;;5022642;28;21168;-67
2023/09/29 03:21:18;;;;;;;11.53;6.37;;;;;17.30;101019.00;;;;5014481;28;20726;-68
2023/09/29 03:24:07;;;;;;;12.33;6.13;;;;;17.30;101013.00;;;;5025341;28;20237;-69
2023/09/29 03:26:54;;;;;;;8.17;6.30;;;;;17.30;101009.00;;;;5025950;28;20229;-69
2023/09/29 03:29:41;;;;;;;7.43;5.87;;;;;17.30;101000.00;;;;5026459;28;20730;-65
2023/09/29 03:32:27;;;;;;;7.80;6.23;;;;;17.30;100999.00;;;;5022257;28;20232;-66
2023/09/29 03:35:14;;;;;;;9.77;6.00;;;;;17.30;101008.00;;;;5016757;28;20938;-67
2023/09/29 03:38:04;;;;;;;10.17;5.33;;;;;17.40;101006.00;;;;5023677;28;20237;-67
2023/09/29 03:40:52;;;;;;;8.00;6.07;;;;;17.40;101013.00;;;;5024974;28;20265;-67
2023/09/29 03:43:39;;;;;;;7.33;5.60;;;;;17.40;101009.00;;;;5019713;28;20238;-67
2023/09/29 03:46:26;;;;;;;9.30;5.57;;;;;17.40;101007.00;;;;5020197;28;20714;-65
2023/09/29 03:49:12;;;;;;;7.47;5.70;;;;;17.30;101006.00;;;;5021247;28;20257;-67
2023/09/29 03:51:59;;;;;;;9.17;5.80;;;;;17.30;101000.00;;;;5017412;28;20607;-68
2023/09/29 03:54:47;;;;;;;5.87;5.20;;;;;17.30;100993.00;;;;5024366;28;20594;-64
2023/09/29 03:57:34;;;;;;;7.67;6.00;;;;;17.30;100985.00;;;;5016123;28;20634;-69
2023/09/29 04:00:21;;;;;;;7.10;5.43;;;;;17.40;100974.00;;;;5012399;28;20712;-68
2023/09/29 04:03:08;;;;;;;10.53;5.60;;;;;17.30;100976.00;;;;5010091;28;20237;-68
2023/09/29 04:05:54;;;;;;;7.10;5.87;;;;;17.30;100976.00;;;;5007424;28;20271;-66
2023/09/29 04:08:41;;;;;;;6.90;5.10;;;;;17.40;100972.00;;;;5019587;28;20607;-67
2023/09/29 04:11:29;;;;;;;10.13;5.60;;;;;17.30;100979.00;;;;5019715;28;20240;-66
2023/09/29 04:14:15;;;;;;;8.90;5.60;;;;;17.30;100984.00;;;;5016867;28;20296;-67
2023/09/29 04:17:19;;;;;;;6.10;5.33;;;;;17.30;100992.00;;;;5018554;28;20248;-69
2023/09/29 04:20:06;;;;;;;7.20;5.60;;;;;17.40;100991.00;;;;5025292;28;20296;-69
2023/09/29 04:22:54;;;;;;;7.70;5.40;;;;;17.40;100986.00;;;;5016939;28;20287;-68
2023/09/29 04:25:40;;;;;;;8.90;5.67;;;;;17.40;100983.00;;;;5024543;28;20240;-67
2023/09/29 04:28:28;;;;;;;8.93;5.60;;;;;17.30;100972.00;;;;5022112;28;20237;-68
2023/09/29 04:31:15;;;;;;;8.03;5.70;;;;;17.30;100966.00;;;;5022185;28;20729;-67
2023/09/29 04:34:01;;;;;;;13.67;5.33;;;;;17.30;100961.00;;;;5024613;28;20352;-67
2023/09/29 04:36:47;;;;;;;10.00;5.13;;;;;17.30;100962.00;;;;5015844;28;20229;-67
2023/09/29 04:39:34;;;;;;;6.97;5.43;;;;;17.30;100976.00;;;;5026132;28;21102;-63
2023/09/29 04:42:20;;;;;;;6.47;5.30;;;;;17.30;100969.00;;;;5015987;28;20607;-68
2023/09/29 04:45:09;;;;;;;12.40;5.83;;;;;17.40;100965.00;;;;5024448;28;20248;-62
2023/09/29 04:47:58;;;;;;;7.73;5.30;;;;;17.30;100961.00;;;;5024625;28;20237;-66
2023/09/29 04:50:44;;;;;;;8.57;5.47;;;;;17.30;100969.00;;;;5025472;28;20947;-67
2023/09/29 04:53:31;;;;;;;7.23;5.57;;;;;17.30;100952.00;;;;5019163;28;20319;-67
2023/09/29 04:56:18;;;;;;;8.60;5.20;;;;;17.30;100951.00;;;;5021982;28;20240;-66
2023/09/29 04:59:04;;;;;;;7.47;4.97;;;;;17.30;100949.00;;;;5022684;28;20812;-66
2023/09/29 05:01:52;;;;;;;7.27;5.03;;;;;17.20;100946.00;;;;5022286;28;20233;-67
2023/09/29 05:04:39;;;;;;;9.70;5.00;;;;;17.20;100924.00;;;;5013589;28;20610;-67
2023/09/29 05:07:25;;;;;;;7.77;4.80;;;;;17.20;100931.00;;;;5021462;28;20341;-66
2023/09/29 05:10:13;;;;;;;6.20;5.30;;;;;17.20;100934.00;;;;5023220;28;20267;-66
2023/09/29 05:12:59;;;;;;;8.13;5.33;;;;;17.10;100942.00;;;;5021059;28;20229;-66
2023/09/29 05:15:46;;;;;;;7.13;5.07;;;;;17.10;100935.00;;;;5024771;28;20233;-67
2023/09/29 05:18:34;;;;;;;7.53;4.63;;;;;17.10;100934.00;;;;5021771;28;20237;-68
2023/09/29 05:21:22;;;;;;;7.27;5.03;;;;;17.10;100930.00;;;;5014869;28;20229;-68
2023/09/29 05:24:09;;;;;;;6.07;5.03;;;;;17.10;100938.00;;;;5019563;28;20250;-67
2023/09/29 05:26:55;;;;;;;6.07;5.20;;;;;17.10;100938.00;;;;5017493;28;20725;-66
2023/09/29 05:29:42;;;;;;;6.97;5.60;;;;;17.10;100932.00;;;;5020474;28;20249;-66
2023/09/29 05:32:28;;;;;;;7.40;4.80;;;;;17.10;100936.00;;;;5016936;28;20283;-66
2023/09/29 05:35:19;;;;;;;9.83;5.00;;;;;17.10;100935.00;;;;5006013;28;20651;-66
2023/09/29 05:38:05;;;;;;;7.00;5.10;;;;;17.20;100944.00;;;;5011078;28;20233;-67
2023/09/29 05:40:52;;;;;;;5.97;5.10;;;;;17.20;100941.00;;;;5019467;28;20304;-69
2023/09/29 05:43:38;;;;;;;9.87;5.83;;;;;17.20;100940.00;;;;5021138;28;20713;-68
2023/09/29 05:46:24;;;;;;;7.53;5.10;;;;;17.20;100933.00;;;;5015120;28;20272;-68
2023/09/29 05:49:11;;;;;;;9.47;5.43;;;;;17.20;100931.00;;;;5013326;28;20303;-67
2023/09/29 05:51:59;;;;;;;7.63;5.10;;;;;17.20;100927.00;;;;5018078;28;20224;-68
2023/09/29 05:54:46;;;;;;;10.43;4.93;;;;;17.30;100933.00;;;;5018666;28;20360;-67
2023/09/29 05:57:32;;;;;;;7.70;5.23;;;;;17.30;100928.00;;;;5019564;28;20337;-66
2023/09/29 06:00:19;;;;;;;7.27;5.43;;;;;17.30;100940.00;;;;5013495;28;20225;-68
2023/09/29 06:03:06;;;;;;;9.37;5.47;;;;;17.30;100937.00;;;;5017268;28;20285;-68
2023/09/29 06:05:52;;;;;;;8.10;5.57;;;;;17.30;100943.00;;;;5013194;28;20309;-63
2023/09/29 06:08:40;;;;;;;7.67;5.50;;;;;17.30;100936.00;;;;5017594;28;20234;-68
2023/09/29 06:11:29;;;;;;;7.40;5.53;;;;;17.30;100945.00;;;;5013837;28;20234;-66
2023/09/29 06:14:15;;;;;;;7.73;5.10;;;;;17.30;100940.00;;;;5023705;28;20234;-68
2023/09/29 06:17:01;;;;;;;10.27;5.30;;;;;17.30;100942.00;;;;5023322;28;20228;-67
2023/09/29 06:19:48;;;;;;;8.70;5.83;;;;;17.30;100935.00;;;;5018356;28;20714;-67
2023/09/29 06:22:35;;;;;;;8.77;6.10;;;;;17.40;100935.00;;;;5020062;28;20614;-68
2023/09/29 06:25:23;;;;;;;8.73;5.83;;;;;17.30;100935.00;;;;5010541;28;20375;-66
2023/09/29 06:28:09;;;;;;;8.37;6.03;;;;;17.40;100935.00;;;;5015030;28;20316;-69
2023/09/29 06:30:56;;;;;;;8.37;6.77;;;;;17.40;100929.00;;;;5013780;28;20781;-67
2023/09/29 06:33:43;;;;;;;10.13;6.13;;;;;17.40;100931.00;;;;5014961;28;20709;-67
2023/09/29 06:36:29;;;;;;;8.33;6.57;;;;;17.50;100925.00;;;;5013017;28;20226;-69
2023/09/29 06:39:16;;;;;;;10.17;6.90;;;;;17.50;100924.00;;;;5006447;28;20242;-69
2023/09/29 06:42:04;;;;;;;8.37;6.67;;;;;17.60;100917.00;;;;5018343;28;20244;-70
2023/09/29 06:44:51;;;;;;;8.93;6.63;;;;;17.70;100914.00;;;;5015843;28;20332;-68
2023/09/29 06:47:37;;;;;;;9.90;6.87;;;;;17.80;100920.00;;;;5009023;28;20233;-67
2023/09/29 06:50:24;;;;;;;8.57;7.23;;;;;17.80;100919.00;;;;5016910;28;20369;-69
2023/09/29 06:53:10;;;;;;;12.33;6.93;;;;;17.90;100911.00;;;;5018474;28;20237;-68
2023/09/29 06:55:57;;;;;;;10.73;6.77;;;;;17.90;100913.00;;;;5015676;28;20604;-68
2023/09/29 06:58:47;;;;;;;10.10;7.17;;;;;17.90;100914.00;;;;5004203;28;20242;-69
2023/09/29 07:01:33;;;;;;;10.77;6.77;;;;;17.90;100917.00;;;;5020188;28;20234;-68
2023/09/29 07:04:19;;;;;;;11.57;6.80;;;;;17.90;100924.00;;;;4997991;28;20864;-70
2023/09/29 07:07:06;;;;;;;10.90;7.27;;;;;17.90;100927.00;;;;5009967;28;20237;-67
2023/09/29 07:09:52;;;;;;;9.60;6.83;;;;;17.90;100919.00;;;;5014012;28;20332;-68
2023/09/29 07:12:39;;;;;;;9.43;6.33;;;;;18.00;100903.00;;;;5016334;28;20230;-69
2023/09/29 07:15:27;;;;;;;8.43;6.63;;;;;18.10;100908.00;;;;5024686;28;20364;-66
2023/09/29 07:18:15;;;;;;;9.73;6.57;;;;;18.20;100904.00;;;;5017417;28;20366;-68
2023/09/29 07:21:01;;;;;;;8.60;6.77;;;;;18.30;100903.00;;;;5026115;28;20600;-68
2023/09/29 07:23:48;;;;;;;11.80;7.30;;;;;18.40;100907.00;;;;5022523;28;20229;-70
2023/09/29 07:26:34;;;;;;;13.17;7.67;;;;;18.50;100909.00;;;;5024261;28;20241;-69
2023/09/29 07:29:21;;;;;;;9.90;7.07;;;;;18.50;100900.00;;;;5025838;28;20311;-67
2023/09/29 07:32:11;;;;;;;9.37;6.40;;;;;18.60;100900.00;;;;5016794;28;20284;-67
2023/09/29 07:34:57;;;;;;;9.47;6.27;;;;;18.70;100898.00;;;;5018530;28;20227;-68
2023/09/29 07:37:44;;;;;;;7.57;6.13;;;;;18.80;100899.00;;;;5021385;28;20822;-68
2023/09/29 07:40:30;;;;;;;8.33;5.60;;;;;18.80;100898.00;;;;5019863;28;20257;-70
2023/09/29 07:43:17;;;;;;;6.83;6.03;;;;;18.90;100896.00;;;;5025352;28;20335;-69
2023/09/29 07:46:03;;;;;;;7.03;5.30;;;;;18.90;100891.00;;;;5021199;28;20285;-66
2023/09/29 07:48:51;;;;;;;8.87;5.33;;;;;19.00;100891.00;;;;5025267;28;20341;-68
2023/09/29 07:51:38;;;;;;;11.10;5.63;;;;;19.00;100887.00;;;;5020565;28;20303;-68
2023/09/29 07:54:24;;;;;;;11.07;6.37;;;;;19.00;100890.00;;;;5013677;28;20237;-69
2023/09/29 07:57:11;;;;;;;17.73;6.30;;;;;19.10;100890.00;;;;5014539;28;20225;-68
2023/09/29 07:59:57;;;;;;;10.13;5.20;;;;;19.30;100885.00;;;;5016728;28;20231;-66
2023/09/29 08:02:45;;;;;;;9.03;5.33;;;;;19.40;100883.00;;;;5016989;28;20332;-69
2023/09/29 08:05:33;;;;;;;9.30;4.97;;;;;19.70;100882.00;;;;5019534;28;20736;-68
2023/09/29 08:08:19;;;;;;;5.43;4.23;;;;;19.90;100887.00;;;;5020005;28;20292;-67
2023/09/29 08:11:05;;;;;;;9.03;4.37;;;;;20.20;100883.00;;;;5018594;28;20769;-68
2023/09/29 08:13:53;;;;;;;5.13;3.83;;;;;20.10;100880.00;;;;5021083;28;20235;-67
2023/09/29 08:16:40;;;;;;;6.83;3.57;;;;;20.20;100885.00;;;;5022597;28;20739;-67
2023/09/29 08:19:26;;;;;;;4.97;3.70;;;;;20.40;100888.00;;;;5021938;28;20245;-70
2023/09/29 08:22:13;;;;;;;6.10;3.63;;;;;20.40;100891.00;;;;5023535;28;20231;-73
2023/09/29 08:25:11;;;;;;;5.00;3.60;;;;;20.50;100882.00;;;;5021484;28;20375;-67
2023/09/29 08:27:57;;;;;;;7.33;3.67;;;;;20.50;100887.00;;;;5018174;28;20741;-68
2023/09/29 08:30:43;;;;;;;4.60;3.60;;;;;20.50;100883.00;;;;5016145;28;20263;-68
2023/09/29 08:33:30;;;;;;;5.53;3.70;;;;;20.50;100884.00;;;;5018195;28;20236;-69
2023/09/29 08:36:35;;;;;;;4.27;3.60;;;;;20.50;100889.00;;;;5017266;28;20290;-68
2023/09/29 08:39:23;;;;;;;5.73;3.47;;;;;20.50;100887.00;;;;5022327;28;20248;-68
2023/09/29 08:42:17;;;;;;;5.77;3.30;;;;;20.50;100890.00;;;;5025420;28;20721;-67
2023/09/29 08:45:10;;;;;;;6.50;3.50;;;;;20.40;100895.00;;;;5018770;28;20833;-70
2023/09/29 08:48:00;;;;;;;4.27;3.40;;;;;20.40;100890.00;;;;5023672;28;20282;-67
2023/09/29 08:50:50;;;;;;;4.27;3.40;;;;;20.40;100890.00;;;;5022818;28;20257;-69
2023/09/29 08:53:37;;;;;;;4.80;3.20;;;;;20.40;100901.00;;;;5015176;28;20234;-68
2023/09/29 08:56:25;;;;;;;6.43;3.53;;;;;20.40;100905.00;;;;5023826;28;20223;-69
2023/09/29 08:59:11;;;;;;;5.33;3.60;;;;;20.40;100905.00;;;;5015142;28;20374;-67
2023/09/29 09:01:58;;;;;;;5.60;3.90;;;;;20.30;100909.00;;;;5008851;28;20605;-68
2023/09/29 09:04:44;;;;;;;7.83;3.90;;;;;20.40;100904.00;;;;5015081;28;20227;-71
2023/09/29 09:07:31;;;;;;;6.67;4.47;;;;;20.50;100911.00;;;;5024706;28;20264;-70
2023/09/29 09:10:17;;;;;;;5.20;4.00;;;;;20.60;100911.00;;;;5012611;28;20288;-68
2023/09/29 09:13:25;;;;;;;4.90;3.80;;;;;20.60;100913.00;;;;5024572;28;20240;-71
2023/09/29 09:16:12;;;;;;;3.97;3.40;;;;;20.60;100920.00;;;;5024273;28;20297;-68
2023/09/29 09:19:08;;;;;;;4.60;3.23;;;;;20.70;100922.00;;;;5021609;28;20236;-66
2023/09/29 09:21:55;;;;;;;7.77;3.87;;;;;20.70;100925.00;;;;5017330;28;20601;-66
2023/09/29 09:24:41;;;;;;;5.83;3.33;;;;;20.70;100924.00;;;;5016568;28;20298;-67
2023/09/29 09:27:37;;;;;;;4.43;3.37;;;;;20.90;100921.00;;;;5015883;28;20238;-65
2023/09/29 09:30:25;;;;;;;7.13;3.70;;;;;21.00;100926.00;;;;5016248;28;20239;-68
2023/09/29 09:33:20;;;;;;;5.57;3.40;;;;;21.10;100925.00;;;;5021235;28;20302;-69
2023/09/29 09:36:10;;;;;;;5.63;3.47;;;;;21.20;100921.00;;;;5013346;28;20233;-67
2023/09/29 09:39:03;;;;;;;4.97;3.40;;;;;21.40;100926.00;;;;5016299;28;20710;-68
2023/09/29 09:41:51;;;;;;;7.67;3.77;;;;;21.50;100922.00;;;;5024569;28;20361;-68
2023/09/29 09:44:38;;;;;;;7.77;3.30;;;;;21.60;100921.00;;;;5024421;28;20307;-70
2023/09/29 09:47:26;;;;;;;5.47;3.17;;;;;21.70;100932.00;;;;5023165;28;20282;-69
2023/09/29 09:50:14;;;;;;;5.60;3.13;;;;;21.80;100930.00;;;;5024322;28;20316;-68
2023/09/29 09:53:03;;;;;;;6.10;3.30;;;;;22.00;100935.00;;;;5022754;28;20733;-68
2023/09/29 09:55:53;;;;;;;7.30;3.40;;;;;22.10;100930.00;;;;5015182;28;20234;-70
2023/09/29 09:58:42;;;;;;;6.63;3.63;;;;;22.10;100946.00;;;;5018663;28;20237;-70
2023/09/29 10:01:28;;;;;;;4.30;3.30;;;;;22.10;100932.00;;;;5018395;28;20229;-70
2023/09/29 10:04:17;;;;;;;6.37;3.50;;;;;22.10;100939.00;;;;5020771;28;20692;-68
2023/09/29 10:07:04;;;;;;;5.33;3.30;;;;;22.20;100937.00;;;;5018270;28;20228;-68
2023/09/29 10:09:50;;;;;;;5.17;3.90;;;;;22.20;100934.00;;;;5034151;28;20244;-71
2023/09/29 10:12:37;;;;;;;6.53;3.70;;;;;22.20;100947.00;;;;5045510;28;20360;-72
2023/09/29 10:15:29;;;;;;;8.23;4.23;;;;;22.30;100938.00;;;;5047597;28;20237;-70
2023/09/29 10:18:17;;;;;;;8.33;4.00;;;;;22.50;100937.00;;;;5047629;28;20240;-71
2023/09/29 10:21:12;;;;;;;5.80;4.00;;;;;22.60;100950.00;;;;5049576;28;20210;-70
2023/09/29 10:24:00;;;;;;;6.33;3.50;;;;;22.60;100951.00;;;;5047539;28;20275;-71
2023/09/29 10:26:48;;;;;;;8.70;3.87;;;;;22.40;100949.00;;;;5043621;28;20237;-68
2023/09/29 10:29:37;;;;;;;7.23;3.57;;;;;22.20;100961.00;;;;5044574;28;20233;-68
2023/09/29 10:32:33;;;;;;;6.70;3.77;;;;;22.00;100963.00;;;;5022547;28;20241;-67
2023/09/29 10:35:19;;;;;;;8.67;3.60;;;;;22.00;100955.00;;;;5007173;28;20237;-67
2023/09/29 10:38:12;;;;;;;7.07;3.40;;;;;22.00;100956.00;;;;5013158;28;20241;-68
2023/09/29 10:40:58;;;;;;;7.20;3.43;;;;;22.10;100958.00;;;;5015428;28;20237;-68
2023/09/29 10:43:48;;;;;;;8.63;3.80;;;;;22.30;100966.00;;;;5028374;28;20228;-67
2023/09/29 10:46:34;;;;;;;4.93;3.33;;;;;22.50;100964.00;;;;5026072;28;20331;-68
2023/09/29 10:49:21;;;;;;;7.13;3.20;;;;;22.70;100966.00;;;;5015372;28;20237;-67
2023/09/29 10:52:17;;;;;;;4.73;3.33;;;;;22.70;100977.00;;;;5023305;28;20320;-68
2023/09/29 10:55:05;;;;;;;5.80;2.80;;;;;22.80;100980.00;;;;5016501;28;20241;-69
2023/09/29 10:57:52;;;;;;;6.83;3.23;;;;;22.90;100971.00;;;;5024602;28;20229;-69
2023/09/29 11:00:47;;;;;;;5.40;3.10;;;;;23.10;100977.00;;;;5026223;28;20233;-69
2023/09/29 11:03:35;;;;;;;4.43;2.73;;;;;23.20;100968.00;;;;5024805;28;21015;-69
2023/09/29 11:06:21;;;;;;;4.80;2.50;;;;;23.50;100978.00;;;;5023997;28;20233;-71
2023/09/29 11:09:10;;;;;;;8.80;2.80;;;;;23.70;100973.00;;;;5024568;28;20257;-68
2023/09/29 11:11:58;;;;;;;6.30;2.97;;;;;23.80;100985.00;;;;5011672;28;20234;-68
2023/09/29 11:14:44;;;;;;;6.03;2.90;;;;;24.00;100988.00;;;;5015542;28;20602;-68
2023/09/29 11:17:42;;;;;;;7.67;3.03;;;;;24.00;100976.00;;;;5023219;28;20279;-69
2023/09/29 11:20:30;;;;;;;5.43;2.80;;;;;24.10;100980.00;;;;5017565;28;20301;-68
2023/09/29 11:23:17;;;;;;;7.40;2.80;;;;;24.10;100967.00;;;;5011554;28;20225;-69
2023/09/29 11:26:09;;;;;;;4.83;2.70;;;;;24.30;100983.00;;;;5015024;28;20817;-69
2023/09/29 11:28:58;;;;;;;6.33;2.73;;;;;24.30;100978.00;;;;5021087;28;20716;-68
2023/09/29 11:31:44;;;;;;;5.53;2.80;;;;;24.30;100993.00;;;;5018523;28;20352;-70
2023/09/29 11:34:31;;;;;;;5.17;2.80;;;;;24.10;100989.00;;;;5013694;28;20242;-65
2023/09/29 11:37:19;;;;;;;3.67;2.40;;;;;24.10;100983.00;;;;5008059;28;20229;-66
2023/09/29 11:40:11;;;;;;;7.47;2.63;;;;;24.30;100988.00;;;;5011701;28;20308;-69
2023/09/29 11:42:58;;;;;;;4.83;2.77;;;;;24.30;101008.00;;;;5021991;28;20233;-68
2023/09/29 11:45:45;;;;;;;6.83;2.70;;;;;24.50;100994.00;;;;5024088;28;20230;-68
2023/09/29 11:48:32;;;;;;;5.03;2.43;;;;;24.90;101004.00;;;;5009168;28;20238;-68
2023/09/29 11:51:18;;;;;;;5.33;2.63;;;;;24.70;100990.00;;;;5024123;28;20234;-68
2023/09/29 11:54:05;;;;;;;4.93;2.53;;;;;24.70;101000.00;;;;5018800;28;20230;-69
2023/09/29 11:56:52;;;;;;;7.37;2.50;;;;;24.90;100992.00;;;;5017459;28;20229;-68
2023/09/29 11:59:39;;;;;;;4.60;2.55;;;;;24.80;100998.00;;;;5018723;28;20626;-67
2023/09/29 12:02:28;;;;;;;4.60;2.47;;;;;24.80;100999.00;;;;5019023;28;20269;-66
2023/09/29 12:05:14;;;;;;;4.43;2.67;;;;;24.60;101004.00;;;;5016833;28;20353;-70
2023/09/29 12:08:02;;;;;;;5.07;2.60;;;;;24.30;101010.00;;;;5020100;28;20233;-69
2023/09/29 12:10:48;;;;;;;4.93;2.27;;;;;24.20;101002.00;;;;5013052;28;20226;-66
2023/09/29 12:13:36;;;;;;;4.00;2.23;;;;;24.10;101010.00;;;;5020472;28;20372;-69
2023/09/29 12:16:22;;;;;;;6.53;2.50;;;;;24.10;100996.00;;;;5019860;28;20230;-68
2023/09/29 12:19:12;;;;;;;4.17;2.33;;;;;24.40;101009.00;;;;5016130;28;20237;-67
2023/09/29 12:21:58;;;;;;;5.30;2.40;;;;;24.60;101006.00;;;;5011425;28;20217;-69
2023/09/29 12:24:45;;;;;;;6.33;2.47;;;;;24.60;101014.00;;;;5013622;28;20702;-70
2023/09/29 12:27:31;;;;;;;4.60;2.33;;;;;24.70;101012.00;;;;5006536;28;20293;-68
2023/09/29 12:30:18;;;;;;;5.20;2.47;;;;;24.60;101026.00;;;;5010999;28;20353;-68
2023/09/29 12:33:06;;;;;;;3.22;2.47;;;;;24.70;101025.00;;;;5016656;28;20223;-70
2023/09/29 12:35:53;;;;;;;4.57;2.35;;;;;24.70;101023.00;;;;5013407;28;20242;-70
2023/09/29 12:38:40;;;;;;;3.60;2.13;;;;;24.60;101029.00;;;;5005601;28;20241;-69
2023/09/29 12:41:26;;;;;;;4.78;2.55;;;;;24.40;101032.00;;;;5008679;28;20234;-69
2023/09/29 12:44:12;;;;;;;5.00;2.40;;;;;24.10;101030.00;;;;5015204;28;20591;-68
2023/09/29 12:46:59;;;;;;;5.40;2.40;;;;;24.00;101040.00;;;;5010024;28;20291;-67
2023/09/29 12:49:45;;;;;;;5.10;2.30;;;;;23.90;101048.00;;;;5011846;28;20287;-69
2023/09/29 12:52:33;;;;;;;3.80;2.40;;;;;24.00;101031.00;;;;5017213;28;20368;-70
2023/09/29 12:55:20;;;;;;;3.43;2.10;;;;;23.90;101043.00;;;;5016080;28;20234;-68
2023/09/29 12:58:07;;;;;;;3.90;2.30;;;;;23.80;101043.00;;;;5011091;28;20323;-68
2023/09/29 13:00:55;;;;;;;3.60;2.40;;;;;23.80;101045.00;;;;5019850;28;20619;-70
2023/09/29 13:03:42;;;;;;;6.07;2.30;;;;;24.00;101042.00;;;;5016112;28;20238;-69
2023/09/29 13:06:28;;;;;;;6.20;2.70;;;;;24.20;101045.00;;;;5008529;28;20234;-68
2023/09/29 13:09:16;;;;;;;5.00;2.20;;;;;24.40;101048.00;;;;5018922;28;20233;-70
2023/09/29 13:12:04;;;;;;;6.47;2.30;;;;;24.70;101055.00;;;;5018680;28;20289;-70
2023/09/29 13:14:54;;;;;;;4.97;2.40;;;;;24.70;101051.00;;;;5013790;28;20233;-68
2023/09/29 13:17:40;;;;;;;4.43;2.53;;;;;24.80;101050.00;;;;5014140;28;20571;-68
2023/09/29 13:20:26;;;;;;;4.47;2.43;;;;;24.80;101063.00;;;;5012754;28;20233;-69
2023/09/29 13:23:13;;;;;;;6.37;2.67;;;;;24.90;101065.00;;;;5011992;28;20592;-69
2023/09/29 13:26:01;;;;;;;4.83;2.07;;;;;24.80;101054.00;;;;5006501;28;20901;-69
2023/09/29 13:28:47;;;;;;;4.33;2.00;;;;;24.60;101084.00;;;;5009260;28;20304;-70
2023/09/29 13:31:34;;;;;;;4.70;2.30;;;;;24.40;101071.00;;;;5012471;28;20239;-69
2023/09/29 13:34:22;;;;;;;2.92;1.80;;;;;24.40;101073.00;;;;5005892;28;20234;-68
2023/09/29 13:37:09;;;;;;;4.07;2.00;;;;;24.50;101074.00;;;;5013075;28;20225;-65
2023/09/29 13:39:56;;;;;;;2.53;1.83;;;;;24.40;101082.00;;;;5019612;28;20304;-66
2023/09/29 13:42:45;;;;;;;7.63;2.10;;;;;24.40;101078.00;;;;5016846;28;20634;-69
2023/09/29 13:45:31;;;;;;;3.80;1.73;;;;;24.50;101081.00;;;;5004311;28;20238;-69